IGO142F VECC-VABB
Flight info
| Callsign | IGO142F |
|---|---|
| Flight time | N/A |
| Altitude | 32000 |
| Route | JJS2C JJS Q20 OPAKA EMRAK2A |
| Aircraft | A321/M-SDE3FGHIRWY/LB1 |
Departure
| Time | 2026-04-23 09:58 |
|---|---|
| Airport | Netaji Subhash Chandra Bose International Airport (VECC) |
Arrival
| Time | N/A |
|---|---|
| Airport | Chhatrapati Shivaji Maharaj International Airport (VABB) |
| Time | Latitude | Longitude | Altitude | Speed | Heading |
|---|---|---|---|---|---|
| 2026-04-23 09:27 | 22.64256 | 88.44038 | 26 ft | 0 kts | 274° |
| 2026-04-23 09:45 | 22.64255 | 88.44052 | 24 ft | 4 kts | 279° |
| 2026-04-23 09:45 | 22.64248 | 88.44080 | 25 ft | 4 kts | 295° |
| 2026-04-23 09:46 | 22.64240 | 88.44097 | 25 ft | 4 kts | 306° |
| 2026-04-23 09:46 | 22.64227 | 88.44114 | 25 ft | 1 kts | 311° |
| 2026-04-23 09:46 | 22.64225 | 88.44116 | 26 ft | 0 kts | 311° |
| 2026-04-23 09:48 | 22.64227 | 88.44115 | 26 ft | 1 kts | 313° |
| 2026-04-23 09:49 | 22.64235 | 88.44112 | 25 ft | 1 kts | 357° |
| 2026-04-23 09:49 | 22.64246 | 88.44118 | 27 ft | 3 kts | 24° |
| 2026-04-23 09:49 | 22.64270 | 88.44136 | 24 ft | 5 kts | 30° |
| 2026-04-23 09:49 | 22.64314 | 88.44143 | 24 ft | 8 kts | 6° |
| 2026-04-23 09:50 | 22.64384 | 88.44152 | 24 ft | 12 kts | 7° |
| 2026-04-23 09:50 | 22.64484 | 88.44165 | 24 ft | 15 kts | 7° |
| 2026-04-23 09:50 | 22.64592 | 88.44179 | 24 ft | 16 kts | 7° |
| 2026-04-23 09:50 | 22.64700 | 88.44193 | 24 ft | 16 kts | 7° |
| 2026-04-23 09:51 | 22.64813 | 88.44208 | 25 ft | 17 kts | 7° |
| 2026-04-23 09:51 | 22.64927 | 88.44216 | 25 ft | 17 kts | 6° |
| 2026-04-23 09:51 | 22.65037 | 88.44233 | 25 ft | 13 kts | 26° |
| 2026-04-23 09:51 | 22.65082 | 88.44317 | 24 ft | 13 kts | 66° |
| 2026-04-23 09:52 | 22.65126 | 88.44407 | 24 ft | 14 kts | 45° |
| 2026-04-23 09:52 | 22.65218 | 88.44426 | 24 ft | 14 kts | 6° |
| 2026-04-23 09:52 | 22.65320 | 88.44438 | 25 ft | 17 kts | 6° |
| 2026-04-23 09:52 | 22.65441 | 88.44453 | 28 ft | 17 kts | 6° |
| 2026-04-23 09:53 | 22.65562 | 88.44467 | 28 ft | 18 kts | 6° |
| 2026-04-23 09:53 | 22.65686 | 88.44475 | 29 ft | 18 kts | 354° |
| 2026-04-23 09:53 | 22.65809 | 88.44453 | 25 ft | 19 kts | 5° |
| 2026-04-23 09:53 | 22.65939 | 88.44447 | 25 ft | 19 kts | 353° |
| 2026-04-23 09:54 | 22.66069 | 88.44461 | 27 ft | 19 kts | 7° |
| 2026-04-23 09:54 | 22.66202 | 88.44477 | 27 ft | 19 kts | 6° |
| 2026-04-23 09:54 | 22.66338 | 88.44492 | 25 ft | 20 kts | 6° |
| 2026-04-23 09:54 | 22.66475 | 88.44511 | 26 ft | 20 kts | 8° |
| 2026-04-23 09:55 | 22.66613 | 88.44533 | 25 ft | 20 kts | 11° |
| 2026-04-23 09:55 | 22.66752 | 88.44564 | 26 ft | 21 kts | 9° |
| 2026-04-23 09:55 | 22.66895 | 88.44583 | 25 ft | 21 kts | 6° |
| 2026-04-23 09:55 | 22.67049 | 88.44598 | 29 ft | 23 kts | 5° |
| 2026-04-23 09:56 | 22.67211 | 88.44616 | 25 ft | 23 kts | 13° |
| 2026-04-23 09:56 | 22.67306 | 88.44745 | 28 ft | 22 kts | 63° |
| 2026-04-23 09:56 | 22.67331 | 88.44890 | 27 ft | 17 kts | 96° |
| 2026-04-23 09:56 | 22.67294 | 88.44982 | 28 ft | 13 kts | 157° |
| 2026-04-23 09:57 | 22.67201 | 88.44977 | 27 ft | 14 kts | 187° |
| 2026-04-23 09:57 | 22.67001 | 88.44960 | 25 ft | 58 kts | 186° |
| 2026-04-23 09:57 | 22.66371 | 88.44883 | 23 ft | 122 kts | 186° |
| 2026-04-23 09:57 | 22.65353 | 88.44767 | 36 ft | 170 kts | 184° |
| 2026-04-23 09:58 | 22.64213 | 88.44619 | 738 ft | 161 kts | 188° |
| 2026-04-23 09:58 | 22.63122 | 88.44434 | 1421 ft | 155 kts | 189° |
| 2026-04-23 09:58 | 22.62132 | 88.43935 | 1696 ft | 172 kts | 228° |
| 2026-04-23 09:58 | 22.61678 | 88.42651 | 1854 ft | 198 kts | 259° |
| 2026-04-23 09:59 | 22.61415 | 88.41120 | 1995 ft | 216 kts | 254° |
| 2026-04-23 09:59 | 22.61052 | 88.39472 | 2103 ft | 236 kts | 253° |
| 2026-04-23 09:59 | 22.60625 | 88.37676 | 2227 ft | 257 kts | 251° |
| 2026-04-23 09:59 | 22.60160 | 88.35774 | 2654 ft | 265 kts | 254° |
| 2026-04-23 10:00 | 22.59684 | 88.33838 | 3218 ft | 266 kts | 254° |
| 2026-04-23 10:00 | 22.59202 | 88.31889 | 3803 ft | 269 kts | 254° |
| 2026-04-23 10:00 | 22.58718 | 88.29931 | 4420 ft | 270 kts | 255° |
| 2026-04-23 10:00 | 22.58238 | 88.27989 | 4986 ft | 271 kts | 257° |
| 2026-04-23 10:01 | 22.57766 | 88.26011 | 5523 ft | 273 kts | 261° |
| 2026-04-23 10:01 | 22.57647 | 88.23939 | 6061 ft | 274 kts | 275° |
| 2026-04-23 10:01 | 22.57737 | 88.21874 | 6589 ft | 276 kts | 274° |
| 2026-04-23 10:01 | 22.57822 | 88.19825 | 7093 ft | 278 kts | 274° |
| 2026-04-23 10:02 | 22.57905 | 88.17729 | 7626 ft | 280 kts | 274° |
| 2026-04-23 10:02 | 22.57988 | 88.15615 | 8172 ft | 282 kts | 274° |
| 2026-04-23 10:02 | 22.58069 | 88.13491 | 8739 ft | 283 kts | 275° |
| 2026-04-23 10:02 | 22.58149 | 88.11357 | 9310 ft | 285 kts | 275° |
| 2026-04-23 10:03 | 22.58229 | 88.09210 | 9842 ft | 287 kts | 275° |
| 2026-04-23 10:03 | 22.58314 | 88.06993 | 9988 ft | 304 kts | 275° |
| 2026-04-23 10:03 | 22.58406 | 88.04641 | 10109 ft | 321 kts | 275° |
| 2026-04-23 10:03 | 22.58502 | 88.02171 | 10232 ft | 336 kts | 275° |
| 2026-04-23 10:04 | 22.58600 | 87.99613 | 10527 ft | 343 kts | 274° |
| 2026-04-23 10:04 | 22.58696 | 87.97019 | 10940 ft | 347 kts | 274° |
| 2026-04-23 10:04 | 22.58792 | 87.94397 | 11375 ft | 350 kts | 274° |
| 2026-04-23 10:04 | 22.58886 | 87.91776 | 11819 ft | 353 kts | 274° |
| 2026-04-23 10:05 | 22.58922 | 87.90766 | 11977 ft | 354 kts | 274° |
| 2026-04-23 10:05 | 22.59019 | 87.88090 | 12420 ft | 357 kts | 274° |
| 2026-04-23 10:05 | 22.59118 | 87.85405 | 12846 ft | 359 kts | 275° |
| 2026-04-23 10:05 | 22.59220 | 87.82687 | 13250 ft | 363 kts | 274° |
| 2026-04-23 10:06 | 22.59321 | 87.79982 | 13637 ft | 366 kts | 274° |
| 2026-04-23 10:06 | 22.59424 | 87.77225 | 13998 ft | 369 kts | 274° |
| 2026-04-23 10:06 | 22.59525 | 87.74439 | 14375 ft | 372 kts | 274° |
| 2026-04-23 10:06 | 22.59625 | 87.71632 | 14743 ft | 374 kts | 275° |
| 2026-04-23 10:07 | 22.59723 | 87.68821 | 15145 ft | 375 kts | 274° |
| 2026-04-23 10:07 | 22.59823 | 87.65987 | 15543 ft | 378 kts | 274° |
| 2026-04-23 10:07 | 22.59925 | 87.63135 | 15919 ft | 380 kts | 274° |
| 2026-04-23 10:07 | 22.60026 | 87.60271 | 16292 ft | 383 kts | 274° |
| 2026-04-23 10:08 | 22.60125 | 87.57378 | 16655 ft | 386 kts | 274° |
| 2026-04-23 10:08 | 22.60225 | 87.54464 | 17013 ft | 388 kts | 274° |
| 2026-04-23 10:08 | 22.60329 | 87.51539 | 17381 ft | 391 kts | 274° |
| 2026-04-23 10:09 | 22.60539 | 87.45606 | 18085 ft | 397 kts | 274° |
| 2026-04-23 10:09 | 22.60638 | 87.42623 | 18424 ft | 398 kts | 274° |
| 2026-04-23 10:09 | 22.60738 | 87.39623 | 18770 ft | 399 kts | 274° |
| 2026-04-23 10:09 | 22.60840 | 87.36628 | 19133 ft | 399 kts | 273° |
| 2026-04-23 10:10 | 22.60943 | 87.33619 | 19488 ft | 400 kts | 273° |
| 2026-04-23 10:10 | 22.61044 | 87.30606 | 19848 ft | 400 kts | 273° |
| 2026-04-23 10:10 | 22.61144 | 87.27591 | 20216 ft | 401 kts | 273° |
| 2026-04-23 10:10 | 22.61243 | 87.24581 | 20564 ft | 401 kts | 273° |
| 2026-04-23 10:11 | 22.61342 | 87.21555 | 20898 ft | 402 kts | 273° |
| 2026-04-23 10:11 | 22.61441 | 87.18523 | 21227 ft | 403 kts | 272° |
| 2026-04-23 10:11 | 22.61537 | 87.15494 | 21554 ft | 404 kts | 272° |
| 2026-04-23 10:11 | 22.61632 | 87.12448 | 21878 ft | 405 kts | 272° |
| 2026-04-23 10:12 | 22.61725 | 87.09405 | 22211 ft | 406 kts | 272° |
| 2026-04-23 10:12 | 22.61819 | 87.06345 | 22532 ft | 407 kts | 272° |
| 2026-04-23 10:12 | 22.61913 | 87.03318 | 22849 ft | 408 kts | 272° |
| 2026-04-23 10:12 | 22.62012 | 87.00212 | 23180 ft | 409 kts | 272° |
| 2026-04-23 10:13 | 22.62110 | 86.97170 | 23452 ft | 410 kts | 272° |
| 2026-04-23 10:13 | 22.62211 | 86.94080 | 23734 ft | 411 kts | 272° |
| 2026-04-23 10:13 | 22.62312 | 86.90983 | 23996 ft | 412 kts | 272° |
| 2026-04-23 10:13 | 22.62412 | 86.87889 | 24263 ft | 413 kts | 272° |
| 2026-04-23 10:14 | 22.62508 | 86.84779 | 24536 ft | 413 kts | 272° |
| 2026-04-23 10:14 | 22.62601 | 86.81663 | 24801 ft | 414 kts | 272° |
| 2026-04-23 10:14 | 22.62694 | 86.78540 | 25078 ft | 415 kts | 272° |
| 2026-04-23 10:14 | 22.62786 | 86.75421 | 25343 ft | 416 kts | 271° |
| 2026-04-23 10:15 | 22.62877 | 86.72285 | 25607 ft | 417 kts | 271° |
| 2026-04-23 10:15 | 22.62966 | 86.69154 | 25868 ft | 418 kts | 271° |
| 2026-04-23 10:15 | 22.63057 | 86.66006 | 26128 ft | 418 kts | 271° |
| 2026-04-23 10:15 | 22.63148 | 86.62850 | 26392 ft | 419 kts | 271° |
| 2026-04-23 10:16 | 22.63240 | 86.59699 | 26663 ft | 420 kts | 271° |
| 2026-04-23 10:16 | 22.63334 | 86.56531 | 26914 ft | 421 kts | 271° |
| 2026-04-23 10:16 | 22.63428 | 86.53355 | 27157 ft | 422 kts | 272° |
| 2026-04-23 10:16 | 22.63768 | 86.50191 | 27392 ft | 424 kts | 281° |
| 2026-04-23 10:17 | 22.64628 | 86.47136 | 27657 ft | 427 kts | 291° |
| 2026-04-23 10:17 | 22.65999 | 86.44265 | 27892 ft | 431 kts | 300° |
| 2026-04-23 10:17 | 22.67570 | 86.41541 | 28124 ft | 432 kts | 299° |
| 2026-04-23 10:17 | 22.69180 | 86.38742 | 28361 ft | 434 kts | 299° |
| 2026-04-23 10:18 | 22.70750 | 86.35996 | 28590 ft | 435 kts | 299° |
| 2026-04-23 10:18 | 22.72341 | 86.33204 | 28836 ft | 436 kts | 299° |
| 2026-04-23 10:18 | 22.73956 | 86.30364 | 29049 ft | 437 kts | 298° |
| 2026-04-23 10:18 | 22.75528 | 86.27595 | 29217 ft | 440 kts | 299° |
| 2026-04-23 10:19 | 22.78624 | 86.21854 | 29506 ft | 440 kts | 291° |
| 2026-04-23 10:19 | 22.79592 | 86.18716 | 29683 ft | 438 kts | 281° |
| 2026-04-23 10:19 | 22.79984 | 86.15456 | 29827 ft | 438 kts | 270° |
| 2026-04-23 10:20 | 22.79808 | 86.12163 | 29967 ft | 438 kts | 260° |
| 2026-04-23 10:20 | 22.79096 | 86.08960 | 30175 ft | 436 kts | 254° |
| 2026-04-23 10:20 | 22.78262 | 86.05817 | 30455 ft | 434 kts | 254° |
| 2026-04-23 10:20 | 22.77437 | 86.02684 | 30757 ft | 430 kts | 254° |
| 2026-04-23 10:21 | 22.76620 | 85.99576 | 31070 ft | 427 kts | 254° |
| 2026-04-23 10:21 | 22.75811 | 85.96495 | 31387 ft | 423 kts | 254° |
| 2026-04-23 10:21 | 22.75012 | 85.93451 | 31702 ft | 419 kts | 254° |
| 2026-04-23 10:21 | 22.74215 | 85.90425 | 32017 ft | 415 kts | 254° |
| 2026-04-23 10:22 | 22.73422 | 85.87428 | 32335 ft | 412 kts | 253° |
| 2026-04-23 10:22 | 22.72635 | 85.84469 | 32629 ft | 408 kts | 253° |
| 2026-04-23 10:22 | 22.71855 | 85.81533 | 32985 ft | 403 kts | 253° |
| 2026-04-23 10:22 | 22.71082 | 85.78630 | 33311 ft | 398 kts | 253° |
| 2026-04-23 10:23 | 22.70317 | 85.75758 | 33612 ft | 395 kts | 253° |
| 2026-04-23 10:23 | 22.69560 | 85.72916 | 33764 ft | 392 kts | 253° |
| 2026-04-23 10:23 | 22.68065 | 85.67298 | 33795 ft | 385 kts | 253° |
| 2026-04-23 10:24 | 22.66593 | 85.61769 | 33792 ft | 384 kts | 253° |
| 2026-04-23 10:24 | 22.65111 | 85.56212 | 33783 ft | 384 kts | 253° |
| 2026-04-23 10:25 | 22.63626 | 85.50645 | 33789 ft | 385 kts | 252° |
| 2026-04-23 10:25 | 22.62139 | 85.45079 | 33802 ft | 385 kts | 252° |
| 2026-04-23 10:26 | 22.60642 | 85.39509 | 33798 ft | 386 kts | 252° |
| 2026-04-23 10:26 | 22.59138 | 85.33924 | 33812 ft | 386 kts | 252° |
| 2026-04-23 10:27 | 22.57634 | 85.28341 | 33797 ft | 387 kts | 252° |
| 2026-04-23 10:27 | 22.56133 | 85.22755 | 33813 ft | 387 kts | 252° |
| 2026-04-23 10:28 | 22.54626 | 85.17158 | 33810 ft | 387 kts | 252° |
| 2026-04-23 10:28 | 22.53117 | 85.11571 | 33812 ft | 387 kts | 252° |
| 2026-04-23 10:29 | 22.51604 | 85.05987 | 33813 ft | 387 kts | 252° |
| 2026-04-23 10:29 | 22.50091 | 85.00401 | 33799 ft | 388 kts | 253° |
| 2026-04-23 10:30 | 22.48573 | 84.94805 | 33764 ft | 388 kts | 253° |
| 2026-04-23 10:30 | 22.47054 | 84.89189 | 33764 ft | 389 kts | 253° |
| 2026-04-23 10:31 | 22.45526 | 84.83580 | 33756 ft | 389 kts | 253° |
| 2026-04-23 10:31 | 22.44002 | 84.77998 | 33764 ft | 389 kts | 253° |
| 2026-04-23 10:32 | 22.42469 | 84.72385 | 33764 ft | 390 kts | 253° |
| 2026-04-23 10:32 | 22.40935 | 84.66773 | 33756 ft | 390 kts | 253° |
| 2026-04-23 10:33 | 22.39401 | 84.61160 | 33756 ft | 390 kts | 252° |
| 2026-04-23 10:33 | 22.38120 | 84.56491 | 33772 ft | 390 kts | 252° |
| 2026-04-23 10:34 | 22.36576 | 84.50879 | 33766 ft | 390 kts | 252° |
| 2026-04-23 10:34 | 22.35027 | 84.45259 | 33751 ft | 390 kts | 252° |
| 2026-04-23 10:35 | 22.33483 | 84.39650 | 33758 ft | 390 kts | 252° |
| 2026-04-23 10:35 | 22.31936 | 84.34045 | 33751 ft | 390 kts | 251° |
| 2026-04-23 10:36 | 22.30383 | 84.28432 | 33754 ft | 390 kts | 252° |
| 2026-04-23 10:36 | 22.28839 | 84.22825 | 33752 ft | 390 kts | 252° |
| 2026-04-23 10:37 | 22.27288 | 84.17215 | 33742 ft | 390 kts | 252° |
| 2026-04-23 10:37 | 22.25736 | 84.11603 | 33742 ft | 390 kts | 252° |
| 2026-04-23 10:38 | 22.24174 | 84.05986 | 33734 ft | 390 kts | 252° |
| 2026-04-23 10:38 | 22.22606 | 84.00380 | 33734 ft | 390 kts | 252° |
| 2026-04-23 10:39 | 22.21041 | 83.94772 | 33735 ft | 390 kts | 252° |
| 2026-04-23 10:39 | 22.19479 | 83.89154 | 33734 ft | 390 kts | 252° |
| 2026-04-23 10:40 | 22.17916 | 83.83539 | 33731 ft | 390 kts | 252° |
| 2026-04-23 10:40 | 22.16351 | 83.77936 | 33726 ft | 390 kts | 252° |
| 2026-04-23 10:41 | 22.14780 | 83.72339 | 33714 ft | 390 kts | 252° |
| 2026-04-23 10:41 | 22.13207 | 83.66745 | 33715 ft | 390 kts | 252° |
| 2026-04-23 10:42 | 22.11642 | 83.61179 | 33715 ft | 390 kts | 252° |
| 2026-04-23 10:42 | 22.10072 | 83.55586 | 33704 ft | 390 kts | 252° |
| 2026-04-23 10:43 | 22.08501 | 83.49996 | 33711 ft | 390 kts | 252° |
| 2026-04-23 10:43 | 22.06941 | 83.44399 | 33706 ft | 389 kts | 252° |
| 2026-04-23 10:44 | 22.05456 | 83.38796 | 33706 ft | 389 kts | 253° |
| 2026-04-23 10:44 | 22.03992 | 83.33181 | 33697 ft | 388 kts | 253° |
| 2026-04-23 10:45 | 22.02512 | 83.27587 | 33699 ft | 388 kts | 253° |
| 2026-04-23 10:45 | 22.01020 | 83.21999 | 33699 ft | 388 kts | 253° |
| 2026-04-23 10:46 | 21.99540 | 83.16437 | 33703 ft | 388 kts | 253° |
| 2026-04-23 10:46 | 21.98053 | 83.10847 | 33712 ft | 388 kts | 252° |
| 2026-04-23 10:47 | 21.96561 | 83.05255 | 33717 ft | 389 kts | 252° |
| 2026-04-23 10:47 | 21.95062 | 82.99653 | 33711 ft | 389 kts | 252° |
| 2026-04-23 10:48 | 21.93565 | 82.94063 | 33717 ft | 389 kts | 252° |
| 2026-04-23 10:48 | 21.92070 | 82.88473 | 33718 ft | 389 kts | 252° |
| 2026-04-23 10:49 | 21.90571 | 82.82872 | 33731 ft | 389 kts | 252° |
| 2026-04-23 10:49 | 21.89069 | 82.77278 | 33738 ft | 389 kts | 252° |
| 2026-04-23 10:50 | 21.87561 | 82.71682 | 33738 ft | 390 kts | 252° |
| 2026-04-23 10:50 | 21.86049 | 82.66084 | 33731 ft | 389 kts | 252° |
| 2026-04-23 10:51 | 21.84545 | 82.60517 | 33741 ft | 389 kts | 252° |
| 2026-04-23 10:51 | 21.83025 | 82.54926 | 33740 ft | 389 kts | 252° |
| 2026-04-23 10:52 | 21.81498 | 82.49299 | 33745 ft | 389 kts | 252° |
| 2026-04-23 10:52 | 21.79986 | 82.43710 | 33744 ft | 389 kts | 252° |
| 2026-04-23 10:53 | 21.78478 | 82.38157 | 33757 ft | 388 kts | 252° |
| 2026-04-23 10:53 | 21.76965 | 82.32600 | 33751 ft | 386 kts | 252° |
| 2026-04-23 10:54 | 21.75458 | 82.27067 | 33750 ft | 385 kts | 252° |
| 2026-04-23 10:54 | 21.73954 | 82.21542 | 33749 ft | 384 kts | 252° |
| 2026-04-23 10:55 | 21.72449 | 82.16037 | 33739 ft | 384 kts | 252° |
| 2026-04-23 10:55 | 21.70946 | 82.10540 | 33745 ft | 383 kts | 252° |
| 2026-04-23 10:56 | 21.69436 | 82.05041 | 33753 ft | 383 kts | 252° |
| 2026-04-23 10:56 | 21.67927 | 81.99552 | 33747 ft | 383 kts | 252° |
| 2026-04-23 10:57 | 21.66419 | 81.94065 | 33748 ft | 383 kts | 252° |
| 2026-04-23 10:57 | 21.64911 | 81.88609 | 33742 ft | 383 kts | 252° |
| 2026-04-23 10:58 | 21.63389 | 81.83091 | 33747 ft | 383 kts | 252° |
| 2026-04-23 10:58 | 21.61879 | 81.77652 | 33751 ft | 382 kts | 252° |
| 2026-04-23 10:59 | 21.60358 | 81.72171 | 33749 ft | 382 kts | 252° |
| 2026-04-23 10:59 | 21.58840 | 81.66701 | 33741 ft | 382 kts | 251° |
| 2026-04-23 11:00 | 21.57322 | 81.61234 | 33759 ft | 382 kts | 251° |
| 2026-04-23 11:00 | 21.55805 | 81.55764 | 33758 ft | 381 kts | 251° |
| 2026-04-23 11:01 | 21.54281 | 81.50301 | 33760 ft | 381 kts | 251° |
| 2026-04-23 11:01 | 21.52762 | 81.44848 | 33759 ft | 381 kts | 251° |
| 2026-04-23 11:02 | 21.51233 | 81.39388 | 33760 ft | 381 kts | 251° |
| 2026-04-23 11:02 | 21.49722 | 81.33972 | 33767 ft | 381 kts | 251° |
| 2026-04-23 11:03 | 21.48200 | 81.28520 | 33764 ft | 381 kts | 251° |
| 2026-04-23 11:03 | 21.46671 | 81.23071 | 33781 ft | 381 kts | 251° |
| 2026-04-23 11:04 | 21.45133 | 81.17629 | 33784 ft | 381 kts | 251° |
| 2026-04-23 11:04 | 21.43600 | 81.12177 | 33781 ft | 381 kts | 251° |
| 2026-04-23 11:05 | 21.42068 | 81.06727 | 33784 ft | 381 kts | 251° |
| 2026-04-23 11:05 | 21.40537 | 81.01286 | 33791 ft | 381 kts | 251° |
| 2026-04-23 11:06 | 21.38226 | 80.93126 | 33787 ft | 381 kts | 251° |
| 2026-04-23 11:07 | 21.36689 | 80.87680 | 33786 ft | 381 kts | 251° |
| 2026-04-23 11:07 | 21.35149 | 80.82239 | 33784 ft | 382 kts | 250° |
| 2026-04-23 11:08 | 21.33603 | 80.76795 | 33781 ft | 382 kts | 251° |
| 2026-04-23 11:08 | 21.32058 | 80.71345 | 33787 ft | 382 kts | 251° |
| 2026-04-23 11:09 | 21.30501 | 80.65886 | 33785 ft | 382 kts | 250° |
| 2026-04-23 11:09 | 21.28946 | 80.60431 | 33790 ft | 383 kts | 250° |
| 2026-04-23 11:10 | 21.27391 | 80.54974 | 33786 ft | 383 kts | 250° |
| 2026-04-23 11:10 | 21.25832 | 80.49518 | 33791 ft | 383 kts | 250° |
| 2026-04-23 11:11 | 21.24274 | 80.44082 | 33788 ft | 384 kts | 250° |
| 2026-04-23 11:11 | 21.22708 | 80.38614 | 33784 ft | 384 kts | 250° |
| 2026-04-23 11:12 | 21.21133 | 80.33136 | 33786 ft | 384 kts | 250° |
| 2026-04-23 11:12 | 21.19565 | 80.27667 | 33785 ft | 384 kts | 250° |
| 2026-04-23 11:13 | 21.17984 | 80.22194 | 33771 ft | 384 kts | 250° |
| 2026-04-23 11:13 | 21.16412 | 80.16738 | 33778 ft | 383 kts | 250° |
| 2026-04-23 11:14 | 21.14846 | 80.11275 | 33789 ft | 383 kts | 250° |
| 2026-04-23 11:14 | 21.13270 | 80.05824 | 33794 ft | 383 kts | 250° |
| 2026-04-23 11:15 | 21.11690 | 80.00377 | 33787 ft | 383 kts | 250° |
| 2026-04-23 11:15 | 21.10123 | 79.94966 | 33787 ft | 383 kts | 250° |
| 2026-04-23 11:16 | 21.08546 | 79.89514 | 33785 ft | 383 kts | 250° |
| 2026-04-23 11:16 | 21.06965 | 79.84077 | 33781 ft | 383 kts | 250° |
| 2026-04-23 11:17 | 21.05377 | 79.78634 | 33784 ft | 382 kts | 249° |
| 2026-04-23 11:17 | 21.03799 | 79.73201 | 33784 ft | 382 kts | 249° |
| 2026-04-23 11:18 | 21.02218 | 79.67770 | 33781 ft | 382 kts | 249° |
| 2026-04-23 11:18 | 21.00630 | 79.62341 | 33782 ft | 382 kts | 249° |
| 2026-04-23 11:19 | 20.99041 | 79.56911 | 33781 ft | 383 kts | 249° |
| 2026-04-23 11:19 | 20.97454 | 79.51468 | 33780 ft | 383 kts | 249° |
| 2026-04-23 11:20 | 20.95867 | 79.46033 | 33783 ft | 383 kts | 249° |
| 2026-04-23 11:20 | 20.94262 | 79.40592 | 33789 ft | 383 kts | 249° |
| 2026-04-23 11:21 | 20.92659 | 79.35149 | 33784 ft | 384 kts | 249° |
| 2026-04-23 11:21 | 20.91068 | 79.29723 | 33782 ft | 385 kts | 249° |
| 2026-04-23 11:22 | 20.89489 | 79.24258 | 33786 ft | 385 kts | 250° |
| 2026-04-23 11:22 | 20.88023 | 79.18737 | 33786 ft | 386 kts | 251° |
| 2026-04-23 11:23 | 20.86813 | 79.14118 | 33788 ft | 385 kts | 251° |
| 2026-04-23 11:23 | 20.85355 | 79.08636 | 33790 ft | 385 kts | 250° |
| 2026-04-23 11:24 | 20.83874 | 79.03131 | 33790 ft | 386 kts | 250° |
| 2026-04-23 11:24 | 20.82389 | 78.97619 | 33787 ft | 386 kts | 250° |
| 2026-04-23 11:25 | 20.80899 | 78.92090 | 33793 ft | 387 kts | 250° |
| 2026-04-23 11:25 | 20.79402 | 78.86558 | 33792 ft | 387 kts | 250° |
| 2026-04-23 11:26 | 20.77906 | 78.81037 | 33792 ft | 387 kts | 250° |
| 2026-04-23 11:26 | 20.76410 | 78.75516 | 33776 ft | 387 kts | 250° |
| 2026-04-23 11:27 | 20.74912 | 78.69994 | 33785 ft | 386 kts | 250° |
| 2026-04-23 11:27 | 20.73416 | 78.64487 | 33795 ft | 386 kts | 250° |
| 2026-04-23 11:28 | 20.71926 | 78.59010 | 33792 ft | 386 kts | 250° |
| 2026-04-23 11:28 | 20.70429 | 78.53508 | 33789 ft | 386 kts | 250° |
| 2026-04-23 11:29 | 20.68933 | 78.48008 | 33789 ft | 386 kts | 250° |
| 2026-04-23 11:29 | 20.67428 | 78.42505 | 33788 ft | 386 kts | 250° |
| 2026-04-23 11:30 | 20.65924 | 78.37013 | 33788 ft | 385 kts | 250° |
| 2026-04-23 11:30 | 20.64419 | 78.31522 | 33787 ft | 386 kts | 250° |
| 2026-04-23 11:31 | 20.62914 | 78.26019 | 33791 ft | 386 kts | 250° |
| 2026-04-23 11:31 | 20.61407 | 78.20516 | 33790 ft | 386 kts | 250° |
| 2026-04-23 11:32 | 20.59908 | 78.15051 | 33791 ft | 386 kts | 250° |
| 2026-04-23 11:32 | 20.58390 | 78.09565 | 33793 ft | 386 kts | 250° |
| 2026-04-23 11:33 | 20.56875 | 78.04077 | 33793 ft | 386 kts | 250° |
| 2026-04-23 11:33 | 20.55369 | 77.98581 | 33792 ft | 386 kts | 250° |
| 2026-04-23 11:34 | 20.53885 | 77.93074 | 33801 ft | 386 kts | 250° |
| 2026-04-23 11:34 | 20.52403 | 77.87568 | 33797 ft | 386 kts | 250° |
| 2026-04-23 11:35 | 20.50932 | 77.82054 | 33790 ft | 387 kts | 251° |
| 2026-04-23 11:35 | 20.49468 | 77.76524 | 33792 ft | 387 kts | 251° |
| 2026-04-23 11:36 | 20.48006 | 77.71000 | 33792 ft | 387 kts | 251° |
| 2026-04-23 11:36 | 20.46534 | 77.65466 | 33793 ft | 388 kts | 250° |
| 2026-04-23 11:37 | 20.45051 | 77.59941 | 33795 ft | 388 kts | 250° |
| 2026-04-23 11:37 | 20.43566 | 77.54412 | 33802 ft | 388 kts | 251° |
| 2026-04-23 11:38 | 20.42089 | 77.48871 | 33794 ft | 389 kts | 251° |
| 2026-04-23 11:38 | 20.40608 | 77.43319 | 33799 ft | 389 kts | 251° |
| 2026-04-23 11:39 | 20.39122 | 77.37776 | 33797 ft | 389 kts | 251° |
| 2026-04-23 11:39 | 20.37627 | 77.32233 | 33799 ft | 390 kts | 251° |
| 2026-04-23 11:40 | 20.36126 | 77.26675 | 33804 ft | 390 kts | 251° |
| 2026-04-23 11:40 | 20.34628 | 77.21119 | 33821 ft | 391 kts | 251° |
| 2026-04-23 11:41 | 20.33140 | 77.15576 | 33811 ft | 392 kts | 251° |
| 2026-04-23 11:41 | 20.31637 | 77.10001 | 33801 ft | 392 kts | 251° |
| 2026-04-23 11:42 | 20.30126 | 77.04431 | 33805 ft | 391 kts | 251° |
| 2026-04-23 11:42 | 20.28617 | 76.98864 | 33811 ft | 391 kts | 251° |
| 2026-04-23 11:43 | 20.27104 | 76.93291 | 33825 ft | 391 kts | 251° |
| 2026-04-23 11:43 | 20.25592 | 76.87733 | 33823 ft | 391 kts | 251° |
| 2026-04-23 11:44 | 20.24079 | 76.82176 | 33819 ft | 391 kts | 251° |
| 2026-04-23 11:44 | 20.22566 | 76.76611 | 33830 ft | 392 kts | 251° |
| 2026-04-23 11:45 | 20.21051 | 76.71032 | 33832 ft | 392 kts | 251° |
| 2026-04-23 11:45 | 20.19531 | 76.65462 | 33827 ft | 392 kts | 251° |
| 2026-04-23 11:46 | 20.18005 | 76.59892 | 33834 ft | 392 kts | 251° |
| 2026-04-23 11:46 | 20.16477 | 76.54323 | 33831 ft | 392 kts | 251° |
| 2026-04-23 11:47 | 20.14946 | 76.48744 | 33846 ft | 393 kts | 251° |
| 2026-04-23 11:47 | 20.13416 | 76.43152 | 33813 ft | 395 kts | 251° |
| 2026-04-23 11:48 | 20.11874 | 76.37540 | 33811 ft | 396 kts | 251° |
| 2026-04-23 11:48 | 20.10322 | 76.31903 | 33814 ft | 397 kts | 251° |
| 2026-04-23 11:49 | 20.08766 | 76.26257 | 33820 ft | 397 kts | 251° |
| 2026-04-23 11:49 | 20.07209 | 76.20613 | 33838 ft | 398 kts | 251° |
| 2026-04-23 11:50 | 20.05645 | 76.14966 | 33837 ft | 398 kts | 251° |
| 2026-04-23 11:50 | 20.04082 | 76.09336 | 33812 ft | 400 kts | 252° |
| 2026-04-23 11:51 | 20.02503 | 76.03644 | 33812 ft | 402 kts | 252° |
| 2026-04-23 11:51 | 20.00913 | 75.97919 | 33815 ft | 404 kts | 252° |
| 2026-04-23 11:52 | 19.99318 | 75.92179 | 33821 ft | 405 kts | 252° |
| 2026-04-23 11:52 | 19.97724 | 75.86439 | 33837 ft | 405 kts | 252° |
| 2026-04-23 11:53 | 19.96122 | 75.80686 | 33846 ft | 406 kts | 252° |
| 2026-04-23 11:53 | 19.94520 | 75.74935 | 33829 ft | 407 kts | 252° |
| 2026-04-23 11:54 | 19.92904 | 75.69155 | 33816 ft | 409 kts | 252° |
| 2026-04-23 11:54 | 19.91283 | 75.63367 | 33827 ft | 412 kts | 252° |
| 2026-04-23 11:55 | 19.89647 | 75.57524 | 33841 ft | 413 kts | 252° |
| 2026-04-23 11:55 | 19.88012 | 75.51680 | 33839 ft | 413 kts | 252° |
| 2026-04-23 11:56 | 19.86374 | 75.45841 | 33842 ft | 407 kts | 252° |
| 2026-04-23 11:56 | 19.84769 | 75.40129 | 33833 ft | 405 kts | 252° |
| 2026-04-23 11:57 | 19.83152 | 75.34360 | 33840 ft | 408 kts | 252° |
| 2026-04-23 11:57 | 19.81913 | 75.29956 | 33832 ft | 409 kts | 252° |
| 2026-04-23 11:58 | 19.80276 | 75.24169 | 33845 ft | 410 kts | 252° |
| 2026-04-23 11:58 | 19.78634 | 75.18370 | 33852 ft | 410 kts | 252° |
| 2026-04-23 11:59 | 19.76996 | 75.12570 | 33856 ft | 410 kts | 252° |
| 2026-04-23 11:59 | 19.75360 | 75.06769 | 33864 ft | 410 kts | 252° |
| 2026-04-23 12:00 | 19.73714 | 75.00965 | 33853 ft | 411 kts | 251° |
| 2026-04-23 12:00 | 19.72888 | 74.98070 | 33612 ft | 406 kts | 252° |
| 2026-04-23 12:00 | 19.72089 | 74.95265 | 33255 ft | 400 kts | 252° |
| 2026-04-23 12:00 | 19.71289 | 74.92458 | 32817 ft | 395 kts | 252° |
| 2026-04-23 12:01 | 19.70489 | 74.89649 | 32372 ft | 390 kts | 252° |
| 2026-04-23 12:01 | 19.69718 | 74.86944 | 31939 ft | 386 kts | 252° |
| 2026-04-23 12:01 | 19.68945 | 74.84228 | 31509 ft | 382 kts | 252° |
| 2026-04-23 12:01 | 19.68181 | 74.81540 | 31086 ft | 379 kts | 252° |
| 2026-04-23 12:02 | 19.67425 | 74.78876 | 30671 ft | 375 kts | 252° |
| 2026-04-23 12:02 | 19.66673 | 74.76232 | 30259 ft | 372 kts | 252° |
| 2026-04-23 12:02 | 19.65925 | 74.73614 | 29837 ft | 370 kts | 252° |
| 2026-04-23 12:02 | 19.65183 | 74.71015 | 29401 ft | 366 kts | 252° |
| 2026-04-23 12:03 | 19.64448 | 74.68446 | 29010 ft | 361 kts | 252° |
| 2026-04-23 12:03 | 19.63722 | 74.65911 | 28624 ft | 357 kts | 252° |
| 2026-04-23 12:03 | 19.63001 | 74.63397 | 28258 ft | 356 kts | 252° |
| 2026-04-23 12:03 | 19.62281 | 74.60888 | 27877 ft | 355 kts | 252° |
| 2026-04-23 12:04 | 19.61567 | 74.58391 | 27501 ft | 353 kts | 252° |
| 2026-04-23 12:04 | 19.60851 | 74.55902 | 27128 ft | 352 kts | 252° |
| 2026-04-23 12:04 | 19.60142 | 74.53421 | 26751 ft | 351 kts | 252° |
| 2026-04-23 12:04 | 19.59459 | 74.50938 | 26390 ft | 350 kts | 253° |
| 2026-04-23 12:05 | 19.58792 | 74.48461 | 26025 ft | 349 kts | 253° |
| 2026-04-23 12:05 | 19.58132 | 74.45986 | 25652 ft | 348 kts | 253° |
| 2026-04-23 12:05 | 19.57473 | 74.43520 | 25273 ft | 346 kts | 253° |
| 2026-04-23 12:05 | 19.56812 | 74.41061 | 24900 ft | 345 kts | 253° |
| 2026-04-23 12:06 | 19.56151 | 74.38619 | 24517 ft | 344 kts | 253° |
| 2026-04-23 12:06 | 19.55497 | 74.36214 | 24137 ft | 344 kts | 253° |
| 2026-04-23 12:06 | 19.54173 | 74.31373 | 23350 ft | 340 kts | 253° |
| 2026-04-23 12:07 | 19.53515 | 74.28970 | 22930 ft | 338 kts | 253° |
| 2026-04-23 12:07 | 19.52859 | 74.26578 | 22527 ft | 337 kts | 253° |
| 2026-04-23 12:07 | 19.52209 | 74.24201 | 22135 ft | 336 kts | 253° |
| 2026-04-23 12:07 | 19.51563 | 74.21830 | 21744 ft | 334 kts | 253° |
| 2026-04-23 12:08 | 19.50921 | 74.19473 | 21354 ft | 332 kts | 253° |
| 2026-04-23 12:08 | 19.50497 | 74.17920 | 21097 ft | 330 kts | 253° |
| 2026-04-23 12:08 | 19.49863 | 74.15592 | 20710 ft | 329 kts | 253° |
| 2026-04-23 12:08 | 19.49229 | 74.13269 | 20318 ft | 327 kts | 253° |
| 2026-04-23 12:09 | 19.48597 | 74.10956 | 19926 ft | 326 kts | 253° |
| 2026-04-23 12:09 | 19.47966 | 74.08649 | 19541 ft | 324 kts | 253° |
| 2026-04-23 12:09 | 19.47337 | 74.06358 | 19165 ft | 323 kts | 253° |
| 2026-04-23 12:09 | 19.46711 | 74.04080 | 18782 ft | 321 kts | 253° |
| 2026-04-23 12:10 | 19.46089 | 74.01812 | 18399 ft | 320 kts | 253° |
| 2026-04-23 12:10 | 19.45469 | 73.99552 | 17993 ft | 319 kts | 254° |
| 2026-04-23 12:10 | 19.44854 | 73.97303 | 17601 ft | 317 kts | 254° |
| 2026-04-23 12:10 | 19.44241 | 73.95063 | 17225 ft | 316 kts | 254° |
| 2026-04-23 12:11 | 19.43631 | 73.92835 | 16840 ft | 313 kts | 253° |
| 2026-04-23 12:11 | 19.43025 | 73.90630 | 16468 ft | 310 kts | 253° |
| 2026-04-23 12:11 | 19.42422 | 73.88440 | 16105 ft | 308 kts | 253° |
| 2026-04-23 12:11 | 19.41659 | 73.86336 | 15733 ft | 305 kts | 242° |
| 2026-04-23 12:12 | 19.40624 | 73.84333 | 15393 ft | 316 kts | 241° |
| 2026-04-23 12:12 | 19.39559 | 73.82279 | 15037 ft | 319 kts | 241° |
| 2026-04-23 12:12 | 19.38495 | 73.80217 | 14679 ft | 319 kts | 242° |
| 2026-04-23 12:12 | 19.37439 | 73.78158 | 14288 ft | 317 kts | 242° |
| 2026-04-23 12:13 | 19.36388 | 73.76111 | 13928 ft | 316 kts | 242° |
| 2026-04-23 12:13 | 19.35341 | 73.74077 | 13559 ft | 314 kts | 242° |
| 2026-04-23 12:13 | 19.34299 | 73.72055 | 13183 ft | 312 kts | 242° |
| 2026-04-23 12:13 | 19.33274 | 73.70067 | 12841 ft | 311 kts | 242° |
| 2026-04-23 12:14 | 19.32244 | 73.68064 | 12649 ft | 310 kts | 242° |
| 2026-04-23 12:14 | 19.31211 | 73.66056 | 12437 ft | 310 kts | 242° |
| 2026-04-23 12:14 | 19.30180 | 73.64057 | 12224 ft | 309 kts | 242° |
| 2026-04-23 12:14 | 19.29148 | 73.62064 | 12020 ft | 308 kts | 242° |
| 2026-04-23 12:15 | 19.28121 | 73.60081 | 11774 ft | 307 kts | 242° |
| 2026-04-23 12:15 | 19.27097 | 73.58102 | 11531 ft | 306 kts | 242° |
| 2026-04-23 12:15 | 19.26076 | 73.56126 | 11295 ft | 306 kts | 242° |
| 2026-04-23 12:15 | 19.25057 | 73.54153 | 11048 ft | 305 kts | 242° |
| 2026-04-23 12:16 | 19.24040 | 73.52184 | 10806 ft | 304 kts | 242° |
| 2026-04-23 12:16 | 19.23024 | 73.50227 | 10569 ft | 303 kts | 242° |
| 2026-04-23 12:16 | 19.22011 | 73.48278 | 10329 ft | 302 kts | 242° |
| 2026-04-23 12:16 | 19.20854 | 73.46430 | 10093 ft | 302 kts | 224° |
| 2026-04-23 12:17 | 19.19051 | 73.45347 | 9861 ft | 302 kts | 192° |
| 2026-04-23 12:17 | 19.16968 | 73.45332 | 9641 ft | 303 kts | 171° |
| 2026-04-23 12:17 | 19.14861 | 73.45489 | 9385 ft | 304 kts | 179° |
| 2026-04-23 12:17 | 19.12748 | 73.45454 | 9126 ft | 304 kts | 184° |
| 2026-04-23 12:18 | 19.10747 | 73.44910 | 8880 ft | 301 kts | 209° |
| 2026-04-23 12:18 | 19.09155 | 73.43524 | 8649 ft | 296 kts | 235° |
| 2026-04-23 12:18 | 19.08309 | 73.41579 | 8451 ft | 292 kts | 262° |
| 2026-04-23 12:18 | 19.08204 | 73.39454 | 8261 ft | 290 kts | 273° |
| 2026-04-23 12:19 | 19.08274 | 73.37318 | 7921 ft | 291 kts | 273° |
| 2026-04-23 12:19 | 19.08334 | 73.35184 | 7539 ft | 289 kts | 274° |
| 2026-04-23 12:19 | 19.08390 | 73.33065 | 7174 ft | 286 kts | 274° |
| 2026-04-23 12:19 | 19.08447 | 73.30971 | 6825 ft | 284 kts | 274° |
| 2026-04-23 12:20 | 19.08507 | 73.28886 | 6479 ft | 285 kts | 272° |
| 2026-04-23 12:20 | 19.08567 | 73.26767 | 6114 ft | 289 kts | 272° |
| 2026-04-23 12:20 | 19.08627 | 73.24674 | 5951 ft | 279 kts | 272° |
| 2026-04-23 12:20 | 19.08687 | 73.22637 | 5658 ft | 276 kts | 273° |
| 2026-04-23 12:21 | 19.08746 | 73.20614 | 5328 ft | 275 kts | 272° |
| 2026-04-23 12:21 | 19.08805 | 73.18596 | 4986 ft | 274 kts | 273° |
| 2026-04-23 12:21 | 19.08863 | 73.16616 | 4652 ft | 270 kts | 273° |
| 2026-04-23 12:21 | 19.08919 | 73.14651 | 4313 ft | 262 kts | 272° |
| 2026-04-23 12:22 | 19.08971 | 73.12778 | 3997 ft | 254 kts | 275° |
| 2026-04-23 12:22 | 19.09021 | 73.10957 | 3825 ft | 242 kts | 275° |
| 2026-04-23 12:22 | 19.09068 | 73.09224 | 3716 ft | 228 kts | 275° |
| 2026-04-23 12:22 | 19.09118 | 73.07572 | 3449 ft | 222 kts | 273° |
| 2026-04-23 12:23 | 19.09122 | 73.05956 | 3182 ft | 218 kts | 274° |
| 2026-04-23 12:23 | 19.09105 | 73.04375 | 2924 ft | 212 kts | 273° |
| 2026-04-23 12:23 | 19.09085 | 73.02851 | 2653 ft | 202 kts | 272° |
| 2026-04-23 12:23 | 19.09065 | 73.01395 | 2400 ft | 195 kts | 275° |
| 2026-04-23 12:24 | 19.09047 | 72.99979 | 2159 ft | 191 kts | 274° |
| 2026-04-23 12:24 | 19.09029 | 72.98582 | 1919 ft | 189 kts | 273° |
| 2026-04-23 12:24 | 19.09011 | 72.97204 | 1696 ft | 187 kts | 274° |
| 2026-04-23 12:24 | 19.08993 | 72.95873 | 1450 ft | 174 kts | 274° |
| 2026-04-23 12:25 | 19.08976 | 72.94615 | 1233 ft | 168 kts | 275° |
| 2026-04-23 12:25 | 19.08959 | 72.93419 | 1009 ft | 155 kts | 275° |
| 2026-04-23 12:25 | 19.08944 | 72.92303 | 840 ft | 149 kts | 273° |
| 2026-04-23 12:25 | 19.08930 | 72.91224 | 687 ft | 145 kts | 271° |
| 2026-04-23 12:26 | 19.08917 | 72.90164 | 520 ft | 143 kts | 273° |
| 2026-04-23 12:26 | 19.08903 | 72.89118 | 358 ft | 143 kts | 270° |
| 2026-04-23 12:26 | 19.08890 | 72.88071 | 149 ft | 142 kts | 271° |
| 2026-04-23 12:26 | 19.08868 | 72.87044 | 57 ft | 130 kts | 273° |